sensor_id;sensor_type;location;lat;lon;timestamp;P1;durP1;ratioP1;P2;durP2;ratioP2
4616;SDS011;2321;42.704;23.384;2023-07-08T00:00:41;1087.63;;;771.40;;
4616;SDS011;2321;42.704;23.384;2023-07-08T00:03:08;1081.87;;;744.87;;
4616;SDS011;2321;42.704;23.384;2023-07-08T00:05:35;1057.43;;;681.57;;
4616;SDS011;2321;42.704;23.384;2023-07-08T00:08:04;1077.40;;;752.33;;
4616;SDS011;2321;42.704;23.384;2023-07-08T00:10:31;1056.77;;;659.80;;
4616;SDS011;2321;42.704;23.384;2023-07-08T00:12:58;1061.00;;;675.27;;
4616;SDS011;2321;42.704;23.384;2023-07-08T00:15:25;1040.40;;;648.27;;
4616;SDS011;2321;42.704;23.384;2023-07-08T00:17:53;1080.20;;;699.90;;
4616;SDS011;2321;42.704;23.384;2023-07-08T00:20:22;1162.70;;;863.80;;
4616;SDS011;2321;42.704;23.384;2023-07-08T00:22:54;1102.10;;;735.73;;
4616;SDS011;2321;42.704;23.384;2023-07-08T00:25:23;1051.60;;;648.00;;
4616;SDS011;2321;42.704;23.384;2023-07-08T00:27:50;1070.47;;;694.90;;
4616;SDS011;2321;42.704;23.384;2023-07-08T00:30:18;1089.57;;;743.97;;
4616;SDS011;2321;42.704;23.384;2023-07-08T00:32:47;1080.43;;;711.90;;
4616;SDS011;2321;42.704;23.384;2023-07-08T00:35:19;1094.87;;;713.43;;
4616;SDS011;2321;42.704;23.384;2023-07-08T00:37:47;1102.50;;;723.87;;
4616;SDS011;2321;42.704;23.384;2023-07-08T00:40:15;1159.17;;;866.13;;
4616;SDS011;2321;42.704;23.384;2023-07-08T00:42:45;1117.77;;;756.47;;
4616;SDS011;2321;42.704;23.384;2023-07-08T00:45:15;1169.10;;;876.57;;
4616;SDS011;2321;42.704;23.384;2023-07-08T00:47:51;1144.00;;;791.17;;
4616;SDS011;2321;42.704;23.384;2023-07-08T00:50:19;1163.13;;;824.37;;
4616;SDS011;2321;42.704;23.384;2023-07-08T00:52:46;1147.37;;;839.57;;
4616;SDS011;2321;42.704;23.384;2023-07-08T00:55:12;1050.83;;;777.60;;
4616;SDS011;2321;42.704;23.384;2023-07-08T00:57:40;1118.97;;;724.70;;
4616;SDS011;2321;42.704;23.384;2023-07-08T01:00:14;1109.63;;;726.33;;
4616;SDS011;2321;42.704;23.384;2023-07-08T01:02:44;1074.63;;;730.80;;
4616;SDS011;2321;42.704;23.384;2023-07-08T01:05:14;1092.80;;;749.80;;
4616;SDS011;2321;42.704;23.384;2023-07-08T01:07:44;1036.77;;;609.40;;
4616;SDS011;2321;42.704;23.384;2023-07-08T01:10:17;1030.13;;;605.77;;
4616;SDS011;2321;42.704;23.384;2023-07-08T01:12:50;1075.07;;;701.53;;
4616;SDS011;2321;42.704;23.384;2023-07-08T01:15:21;1082.10;;;725.20;;
4616;SDS011;2321;42.704;23.384;2023-07-08T01:17:51;1056.20;;;660.47;;
4616;SDS011;2321;42.704;23.384;2023-07-08T01:20:19;1078.33;;;651.00;;
4616;SDS011;2321;42.704;23.384;2023-07-08T01:22:48;1051.83;;;649.07;;
4616;SDS011;2321;42.704;23.384;2023-07-08T01:25:15;1060.90;;;651.80;;
4616;SDS011;2321;42.704;23.384;2023-07-08T01:27:47;1063.13;;;640.13;;
4616;SDS011;2321;42.704;23.384;2023-07-08T01:30:18;1070.20;;;653.40;;
4616;SDS011;2321;42.704;23.384;2023-07-08T01:32:47;1076.63;;;704.13;;
4616;SDS011;2321;42.704;23.384;2023-07-08T01:35:16;1078.83;;;711.90;;
4616;SDS011;2321;42.704;23.384;2023-07-08T01:37:46;1040.93;;;605.97;;
4616;SDS011;2321;42.704;23.384;2023-07-08T01:40:25;1074.20;;;709.07;;
4616;SDS011;2321;42.704;23.384;2023-07-08T01:42:54;1037.33;;;608.43;;
4616;SDS011;2321;42.704;23.384;2023-07-08T01:45:23;1089.07;;;725.83;;
4616;SDS011;2321;42.704;23.384;2023-07-08T01:47:52;1130.23;;;794.23;;
4616;SDS011;2321;42.704;23.384;2023-07-08T01:50:21;1118.50;;;764.37;;
4616;SDS011;2321;42.704;23.384;2023-07-08T01:52:51;1119.00;;;774.30;;
4616;SDS011;2321;42.704;23.384;2023-07-08T01:55:20;1050.70;;;638.87;;
4616;SDS011;2321;42.704;23.384;2023-07-08T01:57:50;1069.77;;;655.73;;
4616;SDS011;2321;42.704;23.384;2023-07-08T02:00:18;1099.83;;;767.27;;
4616;SDS011;2321;42.704;23.384;2023-07-08T02:02:45;1038.43;;;617.47;;
4616;SDS011;2321;42.704;23.384;2023-07-08T02:05:12;1069.80;;;710.50;;
4616;SDS011;2321;42.704;23.384;2023-07-08T02:07:39;1036.97;;;617.87;;
4616;SDS011;2321;42.704;23.384;2023-07-08T02:10:08;1071.90;;;707.93;;
4616;SDS011;2321;42.704;23.384;2023-07-08T02:12:35;1059.23;;;663.50;;
4616;SDS011;2321;42.704;23.384;2023-07-08T02:15:02;1048.17;;;616.20;;
4616;SDS011;2321;42.704;23.384;2023-07-08T02:17:29;1075.53;;;671.37;;
4616;SDS011;2321;42.704;23.384;2023-07-08T02:19:55;1050.93;;;623.67;;
4616;SDS011;2321;42.704;23.384;2023-07-08T02:22:22;1077.53;;;679.00;;
4616;SDS011;2321;42.704;23.384;2023-07-08T02:24:49;1095.47;;;740.37;;
4616;SDS011;2321;42.704;23.384;2023-07-08T02:27:18;1101.37;;;755.70;;
4616;SDS011;2321;42.704;23.384;2023-07-08T02:29:45;1074.03;;;686.20;;
4616;SDS011;2321;42.704;23.384;2023-07-08T02:32:11;1078.57;;;670.93;;
4616;SDS011;2321;42.704;23.384;2023-07-08T02:34:38;1095.27;;;736.63;;
4616;SDS011;2321;42.704;23.384;2023-07-08T02:37:05;1091.90;;;710.10;;
4616;SDS011;2321;42.704;23.384;2023-07-08T02:39:32;1076.90;;;676.10;;
4616;SDS011;2321;42.704;23.384;2023-07-08T02:41:59;1089.63;;;707.97;;
4616;SDS011;2321;42.704;23.384;2023-07-08T02:44:27;1080.10;;;682.90;;
4616;SDS011;2321;42.704;23.384;2023-07-08T02:46:54;1089.80;;;707.93;;
4616;SDS011;2321;42.704;23.384;2023-07-08T02:49:21;1059.03;;;648.47;;
4616;SDS011;2321;42.704;23.384;2023-07-08T02:51:48;1055.43;;;634.93;;
4616;SDS011;2321;42.704;23.384;2023-07-08T02:54:15;1081.10;;;708.53;;
4616;SDS011;2321;42.704;23.384;2023-07-08T02:56:42;1068.93;;;659.93;;
4616;SDS011;2321;42.704;23.384;2023-07-08T02:59:09;1089.63;;;706.80;;
4616;SDS011;2321;42.704;23.384;2023-07-08T03:01:37;1081.97;;;688.07;;
4616;SDS011;2321;42.704;23.384;2023-07-08T03:04:07;1059.97;;;653.80;;
4616;SDS011;2321;42.704;23.384;2023-07-08T03:06:38;1088.47;;;730.53;;
4616;SDS011;2321;42.704;23.384;2023-07-08T03:09:05;1090.60;;;746.13;;
4616;SDS011;2321;42.704;23.384;2023-07-08T03:11:32;1058.37;;;648.53;;
4616;SDS011;2321;42.704;23.384;2023-07-08T03:13:59;1103.83;;;746.33;;
4616;SDS011;2321;42.704;23.384;2023-07-08T03:16:26;1052.63;;;665.17;;
4616;SDS011;2321;42.704;23.384;2023-07-08T03:18:54;1058.20;;;723.33;;
4616;SDS011;2321;42.704;23.384;2023-07-08T03:21:21;1042.10;;;662.20;;
4616;SDS011;2321;42.704;23.384;2023-07-08T03:23:48;1025.53;;;619.87;;
4616;SDS011;2321;42.704;23.384;2023-07-08T03:26:16;1046.03;;;661.33;;
4616;SDS011;2321;42.704;23.384;2023-07-08T03:28:45;1049.10;;;668.93;;
4616;SDS011;2321;42.704;23.384;2023-07-08T03:31:12;1071.23;;;711.17;;
4616;SDS011;2321;42.704;23.384;2023-07-08T03:33:39;1098.70;;;759.07;;
4616;SDS011;2321;42.704;23.384;2023-07-08T03:36:09;1067.17;;;676.53;;
4616;SDS011;2321;42.704;23.384;2023-07-08T03:38:47;1100.70;;;776.77;;
4616;SDS011;2321;42.704;23.384;2023-07-08T03:41:15;1078.77;;;719.40;;
4616;SDS011;2321;42.704;23.384;2023-07-08T03:43:41;1066.63;;;712.03;;
4616;SDS011;2321;42.704;23.384;2023-07-08T03:46:09;1082.47;;;698.83;;
4616;SDS011;2321;42.704;23.384;2023-07-08T03:48:36;1165.70;;;859.13;;
4616;SDS011;2321;42.704;23.384;2023-07-08T03:51:03;1144.90;;;810.37;;
4616;SDS011;2321;42.704;23.384;2023-07-08T03:53:32;1120.73;;;756.97;;
4616;SDS011;2321;42.704;23.384;2023-07-08T03:55:59;1129.60;;;796.27;;
4616;SDS011;2321;42.704;23.384;2023-07-08T03:58:26;1088.47;;;694.67;;
4616;SDS011;2321;42.704;23.384;2023-07-08T04:00:53;1127.30;;;802.43;;
4616;SDS011;2321;42.704;23.384;2023-07-08T04:03:20;1095.53;;;729.73;;
4616;SDS011;2321;42.704;23.384;2023-07-08T04:05:47;1083.33;;;725.10;;
4616;SDS011;2321;42.704;23.384;2023-07-08T04:08:14;1044.27;;;636.73;;
4616;SDS011;2321;42.704;23.384;2023-07-08T04:10:42;1050.73;;;662.70;;
4616;SDS011;2321;42.704;23.384;2023-07-08T04:13:09;1031.73;;;623.70;;
4616;SDS011;2321;42.704;23.384;2023-07-08T04:15:36;1044.57;;;662.53;;
4616;SDS011;2321;42.704;23.384;2023-07-08T04:18:02;1020.93;;;597.90;;
4616;SDS011;2321;42.704;23.384;2023-07-08T04:20:29;1026.17;;;612.97;;
4616;SDS011;2321;42.704;23.384;2023-07-08T04:22:56;1045.30;;;662.57;;
4616;SDS011;2321;42.704;23.384;2023-07-08T04:25:23;1022.07;;;597.20;;
4616;SDS011;2321;42.704;23.384;2023-07-08T04:27:51;1055.97;;;687.37;;
4616;SDS011;2321;42.704;23.384;2023-07-08T04:30:20;1084.90;;;718.20;;
4616;SDS011;2321;42.704;23.384;2023-07-08T04:32:49;1078.10;;;699.40;;
4616;SDS011;2321;42.704;23.384;2023-07-08T04:35:17;1109.03;;;782.70;;
4616;SDS011;2321;42.704;23.384;2023-07-08T04:37:44;1050.80;;;650.63;;
4616;SDS011;2321;42.704;23.384;2023-07-08T04:40:14;1076.90;;;714.17;;
4616;SDS011;2321;42.704;23.384;2023-07-08T04:42:44;1030.40;;;612.53;;
4616;SDS011;2321;42.704;23.384;2023-07-08T04:45:14;1040.17;;;661.67;;
4616;SDS011;2321;42.704;23.384;2023-07-08T04:47:42;1053.50;;;678.93;;
4616;SDS011;2321;42.704;23.384;2023-07-08T04:50:17;1041.30;;;656.80;;
4616;SDS011;2321;42.704;23.384;2023-07-08T04:52:44;1040.07;;;661.57;;
4616;SDS011;2321;42.704;23.384;2023-07-08T04:55:12;1021.70;;;617.93;;
4616;SDS011;2321;42.704;23.384;2023-07-08T04:57:39;1039.37;;;661.63;;
4616;SDS011;2321;42.704;23.384;2023-07-08T05:00:07;1040.40;;;665.20;;
4616;SDS011;2321;42.704;23.384;2023-07-08T05:02:40;1031.77;;;654.97;;
4616;SDS011;2321;42.704;23.384;2023-07-08T05:05:07;1047.43;;;697.97;;
4616;SDS011;2321;42.704;23.384;2023-07-08T05:07:34;1096.40;;;746.90;;
4616;SDS011;2321;42.704;23.384;2023-07-08T05:10:01;1067.87;;;671.70;;
4616;SDS011;2321;42.704;23.384;2023-07-08T05:12:28;1067.53;;;730.73;;
4616;SDS011;2321;42.704;23.384;2023-07-08T05:14:55;1032.87;;;650.07;;
4616;SDS011;2321;42.704;23.384;2023-07-08T05:17:22;1041.03;;;667.40;;
4616;SDS011;2321;42.704;23.384;2023-07-08T05:19:51;1058.53;;;706.07;;
4616;SDS011;2321;42.704;23.384;2023-07-08T05:22:18;1041.77;;;651.67;;
4616;SDS011;2321;42.704;23.384;2023-07-08T05:24:50;1041.47;;;655.17;;
4616;SDS011;2321;42.704;23.384;2023-07-08T05:27:20;1050.37;;;700.77;;
4616;SDS011;2321;42.704;23.384;2023-07-08T05:29:47;1037.43;;;672.00;;
4616;SDS011;2321;42.704;23.384;2023-07-08T05:32:14;1044.37;;;682.87;;
4616;SDS011;2321;42.704;23.384;2023-07-08T05:34:42;1023.17;;;638.23;;
4616;SDS011;2321;42.704;23.384;2023-07-08T05:37:11;1055.40;;;706.43;;
4616;SDS011;2321;42.704;23.384;2023-07-08T05:39:38;1049.63;;;696.20;;
4616;SDS011;2321;42.704;23.384;2023-07-08T05:42:05;1045.03;;;700.30;;
4616;SDS011;2321;42.704;23.384;2023-07-08T05:44:33;1045.73;;;694.53;;
4616;SDS011;2321;42.704;23.384;2023-07-08T05:47:00;1047.40;;;708.37;;
4616;SDS011;2321;42.704;23.384;2023-07-08T05:49:26;1041.13;;;684.60;;
4616;SDS011;2321;42.704;23.384;2023-07-08T05:51:53;1034.03;;;664.73;;
4616;SDS011;2321;42.704;23.384;2023-07-08T05:54:21;1051.40;;;719.27;;
4616;SDS011;2321;42.704;23.384;2023-07-08T05:56:48;1045.53;;;704.53;;
4616;SDS011;2321;42.704;23.384;2023-07-08T05:59:15;1088.73;;;826.40;;
4616;SDS011;2321;42.704;23.384;2023-07-08T06:01:42;1061.67;;;744.97;;
4616;SDS011;2321;42.704;23.384;2023-07-08T06:04:09;1028.90;;;661.53;;
4616;SDS011;2321;42.704;23.384;2023-07-08T06:06:36;1042.03;;;681.30;;
4616;SDS011;2321;42.704;23.384;2023-07-08T06:09:03;1066.23;;;765.33;;
4616;SDS011;2321;42.704;23.384;2023-07-08T06:11:31;1032.47;;;663.43;;
4616;SDS011;2321;42.704;23.384;2023-07-08T06:13:58;1081.77;;;786.67;;
4616;SDS011;2321;42.704;23.384;2023-07-08T06:16:27;1061.40;;;725.77;;
4616;SDS011;2321;42.704;23.384;2023-07-08T06:18:55;1075.40;;;780.20;;
4616;SDS011;2321;42.704;23.384;2023-07-08T06:21:22;1041.90;;;706.80;;
4616;SDS011;2321;42.704;23.384;2023-07-08T06:23:49;1063.50;;;739.53;;
4616;SDS011;2321;42.704;23.384;2023-07-08T06:26:16;1119.17;;;868.23;;
4616;SDS011;2321;42.704;23.384;2023-07-08T06:28:45;1060.93;;;712.90;;
4616;SDS011;2321;42.704;23.384;2023-07-08T06:31:11;1054.57;;;701.70;;
4616;SDS011;2321;42.704;23.384;2023-07-08T06:33:38;1073.43;;;752.53;;
4616;SDS011;2321;42.704;23.384;2023-07-08T06:36:05;1079.13;;;781.70;;
4616;SDS011;2321;42.704;23.384;2023-07-08T06:38:33;1075.40;;;754.97;;
4616;SDS011;2321;42.704;23.384;2023-07-08T06:41:00;1056.77;;;726.43;;
4616;SDS011;2321;42.704;23.384;2023-07-08T06:43:26;1040.07;;;682.77;;
4616;SDS011;2321;42.704;23.384;2023-07-08T06:45:55;1072.17;;;761.20;;
4616;SDS011;2321;42.704;23.384;2023-07-08T06:48:22;1051.80;;;728.47;;
4616;SDS011;2321;42.704;23.384;2023-07-08T06:50:49;1034.50;;;673.40;;
4616;SDS011;2321;42.704;23.384;2023-07-08T06:53:16;1083.53;;;780.43;;
4616;SDS011;2321;42.704;23.384;2023-07-08T06:55:46;1060.30;;;737.37;;
4616;SDS011;2321;42.704;23.384;2023-07-08T06:58:16;1074.50;;;758.67;;
4616;SDS011;2321;42.704;23.384;2023-07-08T07:00:43;1040.37;;;691.27;;
4616;SDS011;2321;42.704;23.384;2023-07-08T07:03:11;1062.80;;;753.20;;
4616;SDS011;2321;42.704;23.384;2023-07-08T07:05:38;1117.80;;;878.23;;
4616;SDS011;2321;42.704;23.384;2023-07-08T07:08:05;1072.43;;;740.77;;
4616;SDS011;2321;42.704;23.384;2023-07-08T07:10:33;1093.03;;;853.97;;
4616;SDS011;2321;42.704;23.384;2023-07-08T07:12:59;1062.40;;;757.17;;
4616;SDS011;2321;42.704;23.384;2023-07-08T07:15:26;1110.60;;;856.77;;
4616;SDS011;2321;42.704;23.384;2023-07-08T07:17:55;1115.13;;;841.53;;
4616;SDS011;2321;42.704;23.384;2023-07-08T07:20:24;1091.23;;;803.33;;
4616;SDS011;2321;42.704;23.384;2023-07-08T07:22:51;1062.93;;;750.17;;
4616;SDS011;2321;42.704;23.384;2023-07-08T07:25:18;1097.97;;;855.43;;
4616;SDS011;2321;42.704;23.384;2023-07-08T07:27:45;1065.30;;;779.77;;
4616;SDS011;2321;42.704;23.384;2023-07-08T07:30:12;1062.20;;;754.30;;
4616;SDS011;2321;42.704;23.384;2023-07-08T07:32:40;1039.50;;;698.30;;
4616;SDS011;2321;42.704;23.384;2023-07-08T07:35:08;1099.93;;;854.47;;
4616;SDS011;2321;42.704;23.384;2023-07-08T07:37:39;1073.03;;;797.87;;
4616;SDS011;2321;42.704;23.384;2023-07-08T07:40:07;1047.10;;;716.77;;
4616;SDS011;2321;42.704;23.384;2023-07-08T07:42:37;1046.93;;;709.37;;
4616;SDS011;2321;42.704;23.384;2023-07-08T07:45:05;1073.87;;;804.63;;
4616;SDS011;2321;42.704;23.384;2023-07-08T07:47:32;1094.53;;;854.13;;
4616;SDS011;2321;42.704;23.384;2023-07-08T07:49:59;1090.40;;;846.67;;
4616;SDS011;2321;42.704;23.384;2023-07-08T07:52:27;1057.90;;;738.27;;
4616;SDS011;2321;42.704;23.384;2023-07-08T07:54:55;1076.50;;;822.53;;
4616;SDS011;2321;42.704;23.384;2023-07-08T07:57:22;1070.13;;;796.20;;
4616;SDS011;2321;42.704;23.384;2023-07-08T07:59:50;1067.43;;;795.23;;
4616;SDS011;2321;42.704;23.384;2023-07-08T08:02:19;1067.60;;;805.50;;
4616;SDS011;2321;42.704;23.384;2023-07-08T08:04:46;1075.03;;;772.53;;
4616;SDS011;2321;42.704;23.384;2023-07-08T08:07:13;1065.07;;;798.03;;
4616;SDS011;2321;42.704;23.384;2023-07-08T08:09:40;1067.17;;;797.27;;
4616;SDS011;2321;42.704;23.384;2023-07-08T08:12:09;1075.33;;;821.43;;
4616;SDS011;2321;42.704;23.384;2023-07-08T08:14:37;1088.17;;;850.20;;
4616;SDS011;2321;42.704;23.384;2023-07-08T08:17:05;1101.13;;;895.53;;
4616;SDS011;2321;42.704;23.384;2023-07-08T08:19:32;1052.70;;;753.40;;
4616;SDS011;2321;42.704;23.384;2023-07-08T08:21:59;1072.27;;;806.73;;
4616;SDS011;2321;42.704;23.384;2023-07-08T08:24:33;1069.13;;;809.90;;
4616;SDS011;2321;42.704;23.384;2023-07-08T08:27:00;1071.93;;;780.53;;
4616;SDS011;2321;42.704;23.384;2023-07-08T08:29:28;1077.47;;;817.00;;
4616;SDS011;2321;42.704;23.384;2023-07-08T08:31:55;1093.87;;;876.50;;
4616;SDS011;2321;42.704;23.384;2023-07-08T08:34:22;1073.33;;;819.50;;
4616;SDS011;2321;42.704;23.384;2023-07-08T08:36:49;1130.97;;;951.17;;
4616;SDS011;2321;42.704;23.384;2023-07-08T08:39:16;1097.40;;;882.57;;
4616;SDS011;2321;42.704;23.384;2023-07-08T08:41:42;1066.73;;;810.67;;
4616;SDS011;2321;42.704;23.384;2023-07-08T08:44:13;1085.77;;;848.93;;
4616;SDS011;2321;42.704;23.384;2023-07-08T08:46:45;1067.90;;;805.63;;
4616;SDS011;2321;42.704;23.384;2023-07-08T08:49:21;1084.73;;;846.33;;
4616;SDS011;2321;42.704;23.384;2023-07-08T08:51:53;1061.23;;;792.53;;
4616;SDS011;2321;42.704;23.384;2023-07-08T08:54:22;1075.50;;;840.37;;
4616;SDS011;2321;42.704;23.384;2023-07-08T08:56:52;1101.00;;;897.37;;
4616;SDS011;2321;42.704;23.384;2023-07-08T08:59:30;1069.47;;;817.63;;
4616;SDS011;2321;42.704;23.384;2023-07-08T09:02:11;1076.37;;;826.03;;
4616;SDS011;2321;42.704;23.384;2023-07-08T09:04:52;1082.23;;;853.57;;
4616;SDS011;2321;42.704;23.384;2023-07-08T09:07:20;1085.60;;;871.93;;
4616;SDS011;2321;42.704;23.384;2023-07-08T09:09:51;1080.03;;;846.37;;
4616;SDS011;2321;42.704;23.384;2023-07-08T09:12:27;1064.33;;;813.20;;
4616;SDS011;2321;42.704;23.384;2023-07-08T09:14:57;1083.27;;;852.93;;
4616;SDS011;2321;42.704;23.384;2023-07-08T09:17:28;1061.77;;;803.37;;
4616;SDS011;2321;42.704;23.384;2023-07-08T09:20:01;1127.33;;;953.17;;
4616;SDS011;2321;42.704;23.384;2023-07-08T09:22:41;1105.53;;;909.50;;
4616;SDS011;2321;42.704;23.384;2023-07-08T09:25:15;1117.10;;;941.57;;
4616;SDS011;2321;42.704;23.384;2023-07-08T09:27:50;1125.23;;;961.40;;
4616;SDS011;2321;42.704;23.384;2023-07-08T09:30:17;1141.30;;;994.07;;
4616;SDS011;2321;42.704;23.384;2023-07-08T09:32:48;1121.90;;;961.60;;
4616;SDS011;2321;42.704;23.384;2023-07-08T09:35:17;1143.33;;;993.60;;
4616;SDS011;2321;42.704;23.384;2023-07-08T09:37:46;1140.03;;;992.23;;
4616;SDS011;2321;42.704;23.384;2023-07-08T09:40:15;1101.73;;;903.03;;
4616;SDS011;2321;42.704;23.384;2023-07-08T09:42:44;1071.83;;;825.37;;
4616;SDS011;2321;42.704;23.384;2023-07-08T09:45:16;1079.03;;;835.80;;
4616;SDS011;2321;42.704;23.384;2023-07-08T09:47:45;1126.70;;;973.43;;
4616;SDS011;2321;42.704;23.384;2023-07-08T09:50:19;1097.63;;;908.90;;
4616;SDS011;2321;42.704;23.384;2023-07-08T09:52:47;1082.40;;;870.63;;
4616;SDS011;2321;42.704;23.384;2023-07-08T09:55:15;1085.57;;;860.20;;
4616;SDS011;2321;42.704;23.384;2023-07-08T09:57:43;1074.13;;;846.63;;
4616;SDS011;2321;42.704;23.384;2023-07-08T10:00:14;1073.20;;;849.03;;
4616;SDS011;2321;42.704;23.384;2023-07-08T10:02:44;1133.77;;;992.50;;
4616;SDS011;2321;42.704;23.384;2023-07-08T10:05:17;1121.67;;;946.63;;
4616;SDS011;2321;42.704;23.384;2023-07-08T10:07:45;1132.60;;;968.07;;
4616;SDS011;2321;42.704;23.384;2023-07-08T10:10:17;1119.53;;;942.83;;
4616;SDS011;2321;42.704;23.384;2023-07-08T10:12:52;1121.23;;;957.60;;
4616;SDS011;2321;42.704;23.384;2023-07-08T10:15:27;1140.50;;;990.00;;
4616;SDS011;2321;42.704;23.384;2023-07-08T10:18:07;1102.40;;;920.40;;
4616;SDS011;2321;42.704;23.384;2023-07-08T10:20:52;1116.77;;;951.03;;
4616;SDS011;2321;42.704;23.384;2023-07-08T10:23:27;1079.53;;;859.97;;
4616;SDS011;2321;42.704;23.384;2023-07-08T10:26:10;1151.90;;;999.90;;
4616;SDS011;2321;42.704;23.384;2023-07-08T10:28:49;1097.60;;;886.43;;
4616;SDS011;2321;42.704;23.384;2023-07-08T10:31:30;1140.70;;;994.70;;
4616;SDS011;2321;42.704;23.384;2023-07-08T10:34:07;1125.20;;;971.57;;
4616;SDS011;2321;42.704;23.384;2023-07-08T10:36:47;1147.27;;;996.33;;
4616;SDS011;2321;42.704;23.384;2023-07-08T10:39:28;1140.30;;;962.10;;
4616;SDS011;2321;42.704;23.384;2023-07-08T10:42:10;1149.33;;;966.93;;
4616;SDS011;2321;42.704;23.384;2023-07-08T10:44:54;1170.87;;;999.90;;
4616;SDS011;2321;42.704;23.384;2023-07-08T10:47:33;1183.17;;;999.90;;
4616;SDS011;2321;42.704;23.384;2023-07-08T10:50:16;1139.83;;;960.93;;
4616;SDS011;2321;42.704;23.384;2023-07-08T10:52:59;1111.00;;;915.50;;
4616;SDS011;2321;42.704;23.384;2023-07-08T10:55:39;1154.60;;;999.90;;
4616;SDS011;2321;42.704;23.384;2023-07-08T10:58:28;1102.43;;;908.90;;
4616;SDS011;2321;42.704;23.384;2023-07-08T11:01:07;1146.17;;;999.30;;
4616;SDS011;2321;42.704;23.384;2023-07-08T11:06:44;1180.13;;;999.90;;
4616;SDS011;2321;42.704;23.384;2023-07-08T11:09:17;1118.10;;;944.03;;
4616;SDS011;2321;42.704;23.384;2023-07-08T11:11:53;1144.67;;;985.70;;
4616;SDS011;2321;42.704;23.384;2023-07-08T11:14:25;1214.93;;;999.90;;
4616;SDS011;2321;42.704;23.384;2023-07-08T11:16:58;1171.87;;;999.90;;
4616;SDS011;2321;42.704;23.384;2023-07-08T11:19:34;1133.87;;;991.50;;
4616;SDS011;2321;42.704;23.384;2023-07-08T11:22:07;1144.73;;;998.07;;
4616;SDS011;2321;42.704;23.384;2023-07-08T11:24:39;1160.57;;;999.90;;
4616;SDS011;2321;42.704;23.384;2023-07-08T11:27:13;1132.47;;;983.70;;
4616;SDS011;2321;42.704;23.384;2023-07-08T11:29:49;1148.57;;;985.90;;
4616;SDS011;2321;42.704;23.384;2023-07-08T11:32:20;1230.60;;;999.90;;
4616;SDS011;2321;42.704;23.384;2023-07-08T11:34:50;1174.97;;;999.90;;
4616;SDS011;2321;42.704;23.384;2023-07-08T11:37:19;1134.10;;;987.47;;
4616;SDS011;2321;42.704;23.384;2023-07-08T11:39:54;1163.60;;;999.90;;
4616;SDS011;2321;42.704;23.384;2023-07-08T11:42:25;1145.73;;;992.23;;
4616;SDS011;2321;42.704;23.384;2023-07-08T11:45:00;1228.80;;;999.90;;
4616;SDS011;2321;42.704;23.384;2023-07-08T11:47:35;1224.70;;;999.90;;
4616;SDS011;2321;42.704;23.384;2023-07-08T11:50:05;1211.30;;;999.90;;
4616;SDS011;2321;42.704;23.384;2023-07-08T11:52:39;1158.53;;;995.27;;
4616;SDS011;2321;42.704;23.384;2023-07-08T11:55:24;1141.23;;;978.27;;
4616;SDS011;2321;42.704;23.384;2023-07-08T11:57:57;1122.97;;;946.23;;
4616;SDS011;2321;42.704;23.384;2023-07-08T12:00:27;1175.90;;;999.90;;
4616;SDS011;2321;42.704;23.384;2023-07-08T12:02:59;1141.97;;;949.97;;
4616;SDS011;2321;42.704;23.384;2023-07-08T12:05:46;1107.87;;;928.57;;
4616;SDS011;2321;42.704;23.384;2023-07-08T12:08:14;1155.10;;;999.90;;
4616;SDS011;2321;42.704;23.384;2023-07-08T12:10:48;1164.70;;;999.90;;
4616;SDS011;2321;42.704;23.384;2023-07-08T12:13:18;1153.63;;;999.90;;
4616;SDS011;2321;42.704;23.384;2023-07-08T12:15:48;1178.87;;;999.90;;
4616;SDS011;2321;42.704;23.384;2023-07-08T12:18:16;1158.10;;;999.90;;
4616;SDS011;2321;42.704;23.384;2023-07-08T12:20:48;1148.30;;;990.43;;
4616;SDS011;2321;42.704;23.384;2023-07-08T12:23:17;1118.47;;;943.23;;
4616;SDS011;2321;42.704;23.384;2023-07-08T12:25:47;1133.20;;;957.53;;
4616;SDS011;2321;42.704;23.384;2023-07-08T12:28:15;1137.03;;;991.97;;
4616;SDS011;2321;42.704;23.384;2023-07-08T12:30:42;1123.53;;;946.67;;
4616;SDS011;2321;42.704;23.384;2023-07-08T12:33:11;1127.10;;;977.40;;
4616;SDS011;2321;42.704;23.384;2023-07-08T12:35:40;1123.70;;;962.67;;
4616;SDS011;2321;42.704;23.384;2023-07-08T12:38:11;1153.03;;;999.90;;
4616;SDS011;2321;42.704;23.384;2023-07-08T12:40:45;1144.20;;;977.77;;
4616;SDS011;2321;42.704;23.384;2023-07-08T12:43:13;1125.17;;;953.97;;
4616;SDS011;2321;42.704;23.384;2023-07-08T12:45:42;1128.33;;;967.43;;
4616;SDS011;2321;42.704;23.384;2023-07-08T12:48:09;1187.17;;;999.90;;
4616;SDS011;2321;42.704;23.384;2023-07-08T12:50:36;1156.40;;;999.90;;
4616;SDS011;2321;42.704;23.384;2023-07-08T12:53:04;1138.67;;;994.03;;
4616;SDS011;2321;42.704;23.384;2023-07-08T12:55:35;1131.63;;;966.53;;
4616;SDS011;2321;42.704;23.384;2023-07-08T12:58:03;1099.90;;;914.03;;
4616;SDS011;2321;42.704;23.384;2023-07-08T13:00:33;1110.33;;;920.13;;
4616;SDS011;2321;42.704;23.384;2023-07-08T13:03:05;1125.13;;;958.67;;
4616;SDS011;2321;42.704;23.384;2023-07-08T13:05:34;1124.70;;;940.90;;
4616;SDS011;2321;42.704;23.384;2023-07-08T13:08:02;1144.57;;;997.10;;
4616;SDS011;2321;42.704;23.384;2023-07-08T13:10:31;1110.83;;;924.93;;
4616;SDS011;2321;42.704;23.384;2023-07-08T13:13:02;1154.70;;;999.90;;
4616;SDS011;2321;42.704;23.384;2023-07-08T13:15:34;1142.93;;;973.10;;
4616;SDS011;2321;42.704;23.384;2023-07-08T13:18:05;1111.10;;;926.67;;
4616;SDS011;2321;42.704;23.384;2023-07-08T13:20:34;1169.50;;;999.90;;
4616;SDS011;2321;42.704;23.384;2023-07-08T13:23:01;1123.23;;;952.97;;
4616;SDS011;2321;42.704;23.384;2023-07-08T13:25:29;1099.40;;;903.83;;
4616;SDS011;2321;42.704;23.384;2023-07-08T13:28:00;1168.60;;;999.90;;
4616;SDS011;2321;42.704;23.384;2023-07-08T13:30:30;1131.17;;;982.03;;
4616;SDS011;2321;42.704;23.384;2023-07-08T13:32:59;1144.83;;;999.90;;
4616;SDS011;2321;42.704;23.384;2023-07-08T13:35:28;1128.60;;;986.10;;
4616;SDS011;2321;42.704;23.384;2023-07-08T13:38:02;1103.87;;;914.40;;
4616;SDS011;2321;42.704;23.384;2023-07-08T13:40:29;1143.37;;;982.90;;
4616;SDS011;2321;42.704;23.384;2023-07-08T13:42:57;1158.17;;;996.87;;
4616;SDS011;2321;42.704;23.384;2023-07-08T13:45:25;1105.97;;;913.43;;
4616;SDS011;2321;42.704;23.384;2023-07-08T13:47:59;1091.80;;;886.87;;
4616;SDS011;2321;42.704;23.384;2023-07-08T13:50:29;1129.67;;;971.10;;
4616;SDS011;2321;42.704;23.384;2023-07-08T13:53:17;1127.53;;;978.60;;
4616;SDS011;2321;42.704;23.384;2023-07-08T13:55:46;1124.37;;;971.30;;
4616;SDS011;2321;42.704;23.384;2023-07-08T13:58:14;1098.67;;;897.20;;
4616;SDS011;2321;42.704;23.384;2023-07-08T14:00:43;1109.60;;;925.77;;
4616;SDS011;2321;42.704;23.384;2023-07-08T14:03:12;1104.97;;;908.57;;
4616;SDS011;2321;42.704;23.384;2023-07-08T14:05:43;1147.13;;;999.90;;
4616;SDS011;2321;42.704;23.384;2023-07-08T14:08:12;1201.07;;;999.90;;
4616;SDS011;2321;42.704;23.384;2023-07-08T14:10:40;1190.17;;;999.90;;
4616;SDS011;2321;42.704;23.384;2023-07-08T14:13:07;1134.40;;;987.20;;